sensor_id;sensor_type;location;lat;lon;timestamp;P1;durP1;ratioP1;P2;durP2;ratioP2
55270;SDS011;41132;47.162;9.470;2022-11-12T00:02:09;9.60;;;6.38;;
55270;SDS011;41132;47.162;9.470;2022-11-12T00:04:34;10.68;;;6.38;;
55270;SDS011;41132;47.162;9.470;2022-11-12T00:06:59;10.80;;;6.80;;
55270;SDS011;41132;47.162;9.470;2022-11-12T00:09:25;10.10;;;5.78;;
55270;SDS011;41132;47.162;9.470;2022-11-12T00:11:50;10.90;;;6.40;;
55270;SDS011;41132;47.162;9.470;2022-11-12T00:14:18;9.00;;;6.68;;
55270;SDS011;41132;47.162;9.470;2022-11-12T00:16:44;10.52;;;6.40;;
55270;SDS011;41132;47.162;9.470;2022-11-12T00:19:09;12.13;;;7.25;;
55270;SDS011;41132;47.162;9.470;2022-11-12T00:21:34;14.40;;;7.88;;
55270;SDS011;41132;47.162;9.470;2022-11-12T00:24:00;11.55;;;6.97;;
55270;SDS011;41132;47.162;9.470;2022-11-12T00:26:25;13.63;;;7.78;;
55270;SDS011;41132;47.162;9.470;2022-11-12T00:28:50;10.88;;;7.28;;
55270;SDS011;41132;47.162;9.470;2022-11-12T00:31:16;13.70;;;7.93;;
55270;SDS011;41132;47.162;9.470;2022-11-12T00:33:41;14.88;;;7.22;;
55270;SDS011;41132;47.162;9.470;2022-11-12T00:36:08;13.55;;;7.68;;
55270;SDS011;41132;47.162;9.470;2022-11-12T00:38:33;13.73;;;6.90;;
55270;SDS011;41132;47.162;9.470;2022-11-12T00:40:59;14.75;;;7.32;;
55270;SDS011;41132;47.162;9.470;2022-11-12T00:46:00;11.45;;;6.93;;
55270;SDS011;41132;47.162;9.470;2022-11-12T00:48:25;12.50;;;6.95;;
55270;SDS011;41132;47.162;9.470;2022-11-12T00:50:50;16.80;;;7.63;;
55270;SDS011;41132;47.162;9.470;2022-11-12T00:53:23;12.10;;;7.25;;
55270;SDS011;41132;47.162;9.470;2022-11-12T00:55:49;11.82;;;6.90;;
55270;SDS011;41132;47.162;9.470;2022-11-12T00:58:14;12.05;;;6.68;;
55270;SDS011;41132;47.162;9.470;2022-11-12T01:00:39;12.98;;;6.78;;
55270;SDS011;41132;47.162;9.470;2022-11-12T01:03:04;10.15;;;6.65;;
55270;SDS011;41132;47.162;9.470;2022-11-12T01:05:31;9.32;;;6.60;;
55270;SDS011;41132;47.162;9.470;2022-11-12T01:07:57;10.88;;;6.47;;
55270;SDS011;41132;47.162;9.470;2022-11-12T01:10:23;10.63;;;6.78;;
55270;SDS011;41132;47.162;9.470;2022-11-12T01:12:48;11.60;;;7.15;;
55270;SDS011;41132;47.162;9.470;2022-11-12T01:15:13;14.05;;;7.45;;
55270;SDS011;41132;47.162;9.470;2022-11-12T01:17:39;11.18;;;6.97;;
55270;SDS011;41132;47.162;9.470;2022-11-12T01:20:04;13.13;;;7.25;;
55270;SDS011;41132;47.162;9.470;2022-11-12T01:22:30;14.77;;;8.02;;
55270;SDS011;41132;47.162;9.470;2022-11-12T01:24:56;13.73;;;7.93;;
55270;SDS011;41132;47.162;9.470;2022-11-12T01:27:21;11.85;;;7.22;;
55270;SDS011;41132;47.162;9.470;2022-11-12T01:29:46;11.13;;;7.10;;
55270;SDS011;41132;47.162;9.470;2022-11-12T01:32:12;14.20;;;7.20;;
55270;SDS011;41132;47.162;9.470;2022-11-12T01:34:37;13.52;;;7.93;;
55270;SDS011;41132;47.162;9.470;2022-11-12T01:37:02;18.25;;;8.68;;
55270;SDS011;41132;47.162;9.470;2022-11-12T01:39:28;16.23;;;9.50;;
55270;SDS011;41132;47.162;9.470;2022-11-12T01:41:53;16.55;;;8.32;;
55270;SDS011;41132;47.162;9.470;2022-11-12T01:44:19;19.92;;;8.80;;
55270;SDS011;41132;47.162;9.470;2022-11-12T01:46:58;24.05;;;8.70;;
55270;SDS011;41132;47.162;9.470;2022-11-12T01:49:33;23.25;;;9.88;;
55270;SDS011;41132;47.162;9.470;2022-11-12T01:52:08;26.83;;;10.13;;
55270;SDS011;41132;47.162;9.470;2022-11-12T01:54:35;34.25;;;9.52;;
55270;SDS011;41132;47.162;9.470;2022-11-12T01:57:00;31.98;;;9.20;;
55270;SDS011;41132;47.162;9.470;2022-11-12T01:59:28;17.60;;;9.25;;
55270;SDS011;41132;47.162;9.470;2022-11-12T02:01:59;19.77;;;8.63;;
55270;SDS011;41132;47.162;9.470;2022-11-12T02:04:25;20.98;;;9.00;;
55270;SDS011;41132;47.162;9.470;2022-11-12T02:06:51;21.08;;;8.48;;
55270;SDS011;41132;47.162;9.470;2022-11-12T02:09:19;14.25;;;7.47;;
55270;SDS011;41132;47.162;9.470;2022-11-12T02:11:45;24.65;;;8.50;;
55270;SDS011;41132;47.162;9.470;2022-11-12T02:14:10;35.45;;;8.95;;
55270;SDS011;41132;47.162;9.470;2022-11-12T02:16:37;15.43;;;8.45;;
55270;SDS011;41132;47.162;9.470;2022-11-12T02:19:06;20.88;;;9.15;;
55270;SDS011;41132;47.162;9.470;2022-11-12T02:21:33;20.45;;;9.40;;
55270;SDS011;41132;47.162;9.470;2022-11-12T02:24:27;16.05;;;9.25;;
55270;SDS011;41132;47.162;9.470;2022-11-12T02:26:48;15.60;;;8.85;;
55270;SDS011;41132;47.162;9.470;2022-11-12T02:29:17;15.68;;;9.98;;
55270;SDS011;41132;47.162;9.470;2022-11-12T02:31:42;22.92;;;10.00;;
55270;SDS011;41132;47.162;9.470;2022-11-12T02:34:08;18.70;;;8.77;;
55270;SDS011;41132;47.162;9.470;2022-11-12T02:36:33;15.80;;;8.77;;
55270;SDS011;41132;47.162;9.470;2022-11-12T02:38:58;13.52;;;8.13;;
55270;SDS011;41132;47.162;9.470;2022-11-12T02:41:24;15.18;;;8.95;;
55270;SDS011;41132;47.162;9.470;2022-11-12T02:43:50;13.98;;;8.23;;
55270;SDS011;41132;47.162;9.470;2022-11-12T02:46:15;14.18;;;8.57;;
55270;SDS011;41132;47.162;9.470;2022-11-12T02:48:41;14.60;;;8.27;;
55270;SDS011;41132;47.162;9.470;2022-11-12T02:51:06;24.55;;;9.40;;
55270;SDS011;41132;47.162;9.470;2022-11-12T02:53:32;16.33;;;7.95;;
55270;SDS011;41132;47.162;9.470;2022-11-12T02:55:58;15.23;;;7.72;;
55270;SDS011;41132;47.162;9.470;2022-11-12T02:58:24;15.68;;;9.25;;
55270;SDS011;41132;47.162;9.470;2022-11-12T03:00:50;16.77;;;9.32;;
55270;SDS011;41132;47.162;9.470;2022-11-12T03:03:15;12.90;;;8.40;;
55270;SDS011;41132;47.162;9.470;2022-11-12T03:05:41;13.55;;;7.97;;
55270;SDS011;41132;47.162;9.470;2022-11-12T03:08:08;15.45;;;8.65;;
55270;SDS011;41132;47.162;9.470;2022-11-12T03:10:35;14.77;;;8.48;;
55270;SDS011;41132;47.162;9.470;2022-11-12T03:13:02;12.95;;;7.85;;
55270;SDS011;41132;47.162;9.470;2022-11-12T03:15:28;12.15;;;7.60;;
55270;SDS011;41132;47.162;9.470;2022-11-12T03:17:54;13.20;;;7.55;;
55270;SDS011;41132;47.162;9.470;2022-11-12T03:20:20;11.55;;;6.85;;
55270;SDS011;41132;47.162;9.470;2022-11-12T03:22:56;11.57;;;7.40;;
55270;SDS011;41132;47.162;9.470;2022-11-12T03:25:23;13.98;;;8.43;;
55270;SDS011;41132;47.162;9.470;2022-11-12T03:27:59;14.10;;;7.93;;
55270;SDS011;41132;47.162;9.470;2022-11-12T03:30:26;13.90;;;7.68;;
55270;SDS011;41132;47.162;9.470;2022-11-12T03:32:53;14.13;;;7.88;;
55270;SDS011;41132;47.162;9.470;2022-11-12T03:35:18;11.60;;;7.32;;
55270;SDS011;41132;47.162;9.470;2022-11-12T03:37:43;12.32;;;7.72;;
55270;SDS011;41132;47.162;9.470;2022-11-12T03:40:09;10.82;;;7.40;;
55270;SDS011;41132;47.162;9.470;2022-11-12T03:42:34;11.35;;;6.88;;
55270;SDS011;41132;47.162;9.470;2022-11-12T03:45:00;10.50;;;6.85;;
55270;SDS011;41132;47.162;9.470;2022-11-12T03:47:25;12.15;;;6.80;;
55270;SDS011;41132;47.162;9.470;2022-11-12T03:49:50;11.93;;;7.32;;
55270;SDS011;41132;47.162;9.470;2022-11-12T03:52:16;12.13;;;7.57;;
55270;SDS011;41132;47.162;9.470;2022-11-12T03:54:41;12.65;;;7.65;;
55270;SDS011;41132;47.162;9.470;2022-11-12T03:57:06;12.70;;;7.80;;
55270;SDS011;41132;47.162;9.470;2022-11-12T03:59:32;11.02;;;6.90;;
55270;SDS011;41132;47.162;9.470;2022-11-12T04:01:57;11.30;;;7.18;;
55270;SDS011;41132;47.162;9.470;2022-11-12T04:04:22;10.18;;;6.25;;
55270;SDS011;41132;47.162;9.470;2022-11-12T04:07:07;11.48;;;6.93;;
55270;SDS011;41132;47.162;9.470;2022-11-12T04:09:52;11.77;;;7.15;;
55270;SDS011;41132;47.162;9.470;2022-11-12T04:12:17;12.57;;;7.43;;
55270;SDS011;41132;47.162;9.470;2022-11-12T04:15:01;9.85;;;6.22;;
55270;SDS011;41132;47.162;9.470;2022-11-12T04:17:26;10.90;;;6.70;;
55270;SDS011;41132;47.162;9.470;2022-11-12T04:20:10;10.77;;;6.65;;
55270;SDS011;41132;47.162;9.470;2022-11-12T04:22:54;11.45;;;7.07;;
55270;SDS011;41132;47.162;9.470;2022-11-12T04:25:19;10.90;;;6.50;;
55270;SDS011;41132;47.162;9.470;2022-11-12T04:28:03;10.02;;;5.80;;
55270;SDS011;41132;47.162;9.470;2022-11-12T04:30:29;10.60;;;6.57;;
55270;SDS011;41132;47.162;9.470;2022-11-12T04:32:54;10.68;;;6.03;;
55270;SDS011;41132;47.162;9.470;2022-11-12T04:35:21;8.57;;;5.28;;
55270;SDS011;41132;47.162;9.470;2022-11-12T04:37:47;9.88;;;6.10;;
55270;SDS011;41132;47.162;9.470;2022-11-12T04:40:17;8.93;;;6.07;;
55270;SDS011;41132;47.162;9.470;2022-11-12T04:43:04;10.40;;;5.82;;
55270;SDS011;41132;47.162;9.470;2022-11-12T04:45:52;10.30;;;6.20;;
55270;SDS011;41132;47.162;9.470;2022-11-12T04:48:19;10.30;;;6.35;;
55270;SDS011;41132;47.162;9.470;2022-11-12T04:50:46;12.30;;;6.25;;
55270;SDS011;41132;47.162;9.470;2022-11-12T04:53:14;10.50;;;6.03;;
55270;SDS011;41132;47.162;9.470;2022-11-12T04:55:39;11.98;;;5.65;;
55270;SDS011;41132;47.162;9.470;2022-11-12T04:58:05;9.93;;;5.95;;
55270;SDS011;41132;47.162;9.470;2022-11-12T05:21:12;9.13;;;6.20;;
55270;SDS011;41132;47.162;9.470;2022-11-12T05:23:56;9.05;;;6.07;;
55270;SDS011;41132;47.162;9.470;2022-11-12T05:26:21;11.38;;;6.85;;
55270;SDS011;41132;47.162;9.470;2022-11-12T05:28:47;18.88;;;7.47;;
55270;SDS011;41132;47.162;9.470;2022-11-12T05:31:12;12.68;;;6.95;;
55270;SDS011;41132;47.162;9.470;2022-11-12T05:33:37;17.75;;;7.22;;
55270;SDS011;41132;47.162;9.470;2022-11-12T05:36:02;13.43;;;7.90;;
55270;SDS011;41132;47.162;9.470;2022-11-12T05:46:15;12.05;;;7.18;;
55270;SDS011;41132;47.162;9.470;2022-11-12T05:51:15;15.23;;;6.85;;
55270;SDS011;41132;47.162;9.470;2022-11-12T05:53:40;22.05;;;7.40;;
55270;SDS011;41132;47.162;9.470;2022-11-12T05:56:07;14.23;;;7.30;;
55270;SDS011;41132;47.162;9.470;2022-11-12T05:58:34;13.35;;;6.88;;
55270;SDS011;41132;47.162;9.470;2022-11-12T06:01:00;12.13;;;6.70;;
55270;SDS011;41132;47.162;9.470;2022-11-12T06:03:25;13.48;;;7.15;;
55270;SDS011;41132;47.162;9.470;2022-11-12T06:05:51;12.25;;;7.13;;
55270;SDS011;41132;47.162;9.470;2022-11-12T06:10:52;11.23;;;6.72;;
55270;SDS011;41132;47.162;9.470;2022-11-12T06:13:19;14.02;;;7.43;;
55270;SDS011;41132;47.162;9.470;2022-11-12T06:15:45;10.80;;;6.38;;
55270;SDS011;41132;47.162;9.470;2022-11-12T06:18:11;13.73;;;7.15;;
55270;SDS011;41132;47.162;9.470;2022-11-12T06:20:36;12.50;;;7.40;;
55270;SDS011;41132;47.162;9.470;2022-11-12T06:23:02;14.50;;;7.60;;
55270;SDS011;41132;47.162;9.470;2022-11-12T06:25:28;21.88;;;8.73;;
55270;SDS011;41132;47.162;9.470;2022-11-12T06:27:53;13.43;;;7.07;;
55270;SDS011;41132;47.162;9.470;2022-11-12T06:30:18;17.13;;;8.18;;
55270;SDS011;41132;47.162;9.470;2022-11-12T06:32:47;15.93;;;7.32;;
55270;SDS011;41132;47.162;9.470;2022-11-12T06:35:14;12.60;;;6.97;;
55270;SDS011;41132;47.162;9.470;2022-11-12T06:37:40;13.38;;;8.38;;
55270;SDS011;41132;47.162;9.470;2022-11-12T06:40:06;17.48;;;8.73;;
55270;SDS011;41132;47.162;9.470;2022-11-12T06:42:31;20.10;;;9.85;;
55270;SDS011;41132;47.162;9.470;2022-11-12T06:47:31;12.18;;;7.35;;
55270;SDS011;41132;47.162;9.470;2022-11-12T06:55:07;16.90;;;8.10;;
55270;SDS011;41132;47.162;9.470;2022-11-12T07:02:43;13.52;;;7.68;;
55270;SDS011;41132;47.162;9.470;2022-11-12T07:05:08;12.77;;;8.02;;
55270;SDS011;41132;47.162;9.470;2022-11-12T07:07:34;16.45;;;7.60;;
55270;SDS011;41132;47.162;9.470;2022-11-12T07:09:59;14.77;;;8.20;;
55270;SDS011;41132;47.162;9.470;2022-11-12T07:12:24;15.25;;;7.53;;
55270;SDS011;41132;47.162;9.470;2022-11-12T07:14:49;16.20;;;8.38;;
55270;SDS011;41132;47.162;9.470;2022-11-12T07:17:16;31.60;;;8.85;;
55270;SDS011;41132;47.162;9.470;2022-11-12T07:19:41;25.90;;;8.38;;
55270;SDS011;41132;47.162;9.470;2022-11-12T07:22:07;13.85;;;7.50;;
55270;SDS011;41132;47.162;9.470;2022-11-12T07:24:32;19.20;;;7.63;;
55270;SDS011;41132;47.162;9.470;2022-11-12T07:26:57;18.08;;;7.13;;
55270;SDS011;41132;47.162;9.470;2022-11-12T07:29:23;14.63;;;7.05;;
55270;SDS011;41132;47.162;9.470;2022-11-12T07:31:48;26.98;;;7.75;;
55270;SDS011;41132;47.162;9.470;2022-11-12T07:34:13;17.08;;;8.70;;
55270;SDS011;41132;47.162;9.470;2022-11-12T07:36:39;14.60;;;7.63;;
55270;SDS011;41132;47.162;9.470;2022-11-12T07:39:04;16.35;;;8.13;;
55270;SDS011;41132;47.162;9.470;2022-11-12T07:41:30;12.63;;;7.90;;
55270;SDS011;41132;47.162;9.470;2022-11-12T07:43:55;15.25;;;8.20;;
55270;SDS011;41132;47.162;9.470;2022-11-12T07:46:22;19.27;;;8.77;;
55270;SDS011;41132;47.162;9.470;2022-11-12T07:48:49;11.68;;;7.35;;
55270;SDS011;41132;47.162;9.470;2022-11-12T07:51:17;13.15;;;7.90;;
55270;SDS011;41132;47.162;9.470;2022-11-12T07:53:43;14.70;;;7.28;;
55270;SDS011;41132;47.162;9.470;2022-11-12T07:56:10;16.02;;;7.50;;
55270;SDS011;41132;47.162;9.470;2022-11-12T07:58:37;15.70;;;7.43;;
55270;SDS011;41132;47.162;9.470;2022-11-12T08:01:07;13.75;;;8.25;;
55270;SDS011;41132;47.162;9.470;2022-11-12T08:03:34;13.63;;;8.10;;
55270;SDS011;41132;47.162;9.470;2022-11-12T08:05:59;17.77;;;7.43;;
55270;SDS011;41132;47.162;9.470;2022-11-12T08:08:25;14.68;;;8.15;;
55270;SDS011;41132;47.162;9.470;2022-11-12T08:10:55;12.60;;;6.97;;
55270;SDS011;41132;47.162;9.470;2022-11-12T08:13:21;13.02;;;7.55;;
55270;SDS011;41132;47.162;9.470;2022-11-12T08:15:47;11.60;;;6.25;;
55270;SDS011;41132;47.162;9.470;2022-11-12T08:18:12;10.38;;;6.57;;
55270;SDS011;41132;47.162;9.470;2022-11-12T08:20:37;11.05;;;6.72;;
55270;SDS011;41132;47.162;9.470;2022-11-12T08:23:03;12.15;;;6.95;;
55270;SDS011;41132;47.162;9.470;2022-11-12T08:25:28;11.32;;;6.63;;
55270;SDS011;41132;47.162;9.470;2022-11-12T08:27:55;12.98;;;6.45;;
55270;SDS011;41132;47.162;9.470;2022-11-12T08:30:24;12.65;;;7.40;;
55270;SDS011;41132;47.162;9.470;2022-11-12T08:32:58;14.00;;;7.20;;
55270;SDS011;41132;47.162;9.470;2022-11-12T08:35:24;15.35;;;8.52;;
55270;SDS011;41132;47.162;9.470;2022-11-12T08:37:51;18.38;;;8.32;;
55270;SDS011;41132;47.162;9.470;2022-11-12T08:40:21;14.30;;;7.35;;
55270;SDS011;41132;47.162;9.470;2022-11-12T08:42:46;13.73;;;7.18;;
55270;SDS011;41132;47.162;9.470;2022-11-12T08:45:11;16.85;;;7.85;;
55270;SDS011;41132;47.162;9.470;2022-11-12T08:47:37;13.63;;;8.15;;
55270;SDS011;41132;47.162;9.470;2022-11-12T08:50:02;12.45;;;7.75;;
55270;SDS011;41132;47.162;9.470;2022-11-12T08:52:27;12.75;;;6.45;;
55270;SDS011;41132;47.162;9.470;2022-11-12T08:54:53;14.50;;;7.55;;
55270;SDS011;41132;47.162;9.470;2022-11-12T08:57:18;13.35;;;9.38;;
55270;SDS011;41132;47.162;9.470;2022-11-12T08:59:43;16.13;;;9.80;;
55270;SDS011;41132;47.162;9.470;2022-11-12T09:02:12;16.42;;;8.50;;
55270;SDS011;41132;47.162;9.470;2022-11-12T09:04:38;16.30;;;8.52;;
55270;SDS011;41132;47.162;9.470;2022-11-12T09:07:03;13.80;;;7.57;;
55270;SDS011;41132;47.162;9.470;2022-11-12T09:09:29;13.88;;;8.38;;
55270;SDS011;41132;47.162;9.470;2022-11-12T09:11:54;14.70;;;7.70;;
55270;SDS011;41132;47.162;9.470;2022-11-12T09:14:19;14.00;;;7.22;;
55270;SDS011;41132;47.162;9.470;2022-11-12T09:16:45;13.15;;;7.47;;
55270;SDS011;41132;47.162;9.470;2022-11-12T09:19:10;12.05;;;7.55;;
55270;SDS011;41132;47.162;9.470;2022-11-12T09:21:36;12.98;;;7.63;;
55270;SDS011;41132;47.162;9.470;2022-11-12T09:24:01;22.98;;;8.95;;
55270;SDS011;41132;47.162;9.470;2022-11-12T09:26:27;18.30;;;11.73;;
55270;SDS011;41132;47.162;9.470;2022-11-12T09:28:52;22.40;;;11.80;;
55270;SDS011;41132;47.162;9.470;2022-11-12T09:31:18;15.82;;;9.90;;
55270;SDS011;41132;47.162;9.470;2022-11-12T09:33:44;15.45;;;9.00;;
55270;SDS011;41132;47.162;9.470;2022-11-12T09:36:09;13.65;;;8.77;;
55270;SDS011;41132;47.162;9.470;2022-11-12T09:38:35;16.20;;;8.85;;
55270;SDS011;41132;47.162;9.470;2022-11-12T09:41:04;16.10;;;8.00;;
55270;SDS011;41132;47.162;9.470;2022-11-12T09:43:36;15.25;;;8.80;;
55270;SDS011;41132;47.162;9.470;2022-11-12T09:49:01;13.25;;;7.40;;
55270;SDS011;41132;47.162;9.470;2022-11-12T09:51:30;14.30;;;8.48;;
55270;SDS011;41132;47.162;9.470;2022-11-12T09:53:58;15.32;;;8.95;;
55270;SDS011;41132;47.162;9.470;2022-11-12T09:56:28;14.45;;;8.77;;
55270;SDS011;41132;47.162;9.470;2022-11-12T09:58:54;15.70;;;8.93;;
55270;SDS011;41132;47.162;9.470;2022-11-12T10:01:22;13.13;;;8.15;;
55270;SDS011;41132;47.162;9.470;2022-11-12T10:06:34;19.52;;;11.30;;
55270;SDS011;41132;47.162;9.470;2022-11-12T10:09:12;14.23;;;8.77;;
55270;SDS011;41132;47.162;9.470;2022-11-12T10:18:11;10.05;;;6.50;;
55270;SDS011;41132;47.162;9.470;2022-11-12T10:20:58;12.65;;;8.10;;
55270;SDS011;41132;47.162;9.470;2022-11-12T10:23:41;12.45;;;7.60;;
55270;SDS011;41132;47.162;9.470;2022-11-12T10:26:10;13.68;;;7.63;;
55270;SDS011;41132;47.162;9.470;2022-11-12T10:28:42;11.57;;;7.07;;
55270;SDS011;41132;47.162;9.470;2022-11-12T10:31:18;13.48;;;7.88;;
55270;SDS011;41132;47.162;9.470;2022-11-12T10:33:45;12.77;;;6.80;;
55270;SDS011;41132;47.162;9.470;2022-11-12T10:38:53;15.10;;;7.13;;
55270;SDS011;41132;47.162;9.470;2022-11-12T10:43:53;12.48;;;7.68;;
55270;SDS011;41132;47.162;9.470;2022-11-12T10:46:21;11.50;;;7.15;;
55270;SDS011;41132;47.162;9.470;2022-11-12T10:48:53;14.02;;;6.82;;
55270;SDS011;41132;47.162;9.470;2022-11-12T10:51:25;10.85;;;6.32;;
55270;SDS011;41132;47.162;9.470;2022-11-12T10:56:52;10.02;;;6.50;;
55270;SDS011;41132;47.162;9.470;2022-11-12T10:59:21;10.35;;;6.78;;
55270;SDS011;41132;47.162;9.470;2022-11-12T11:01:55;10.27;;;6.60;;
55270;SDS011;41132;47.162;9.470;2022-11-12T11:04:31;11.77;;;7.18;;
55270;SDS011;41132;47.162;9.470;2022-11-12T11:07:14;11.57;;;7.30;;
55270;SDS011;41132;47.162;9.470;2022-11-12T11:09:51;11.90;;;7.88;;
55270;SDS011;41132;47.162;9.470;2022-11-12T11:12:29;13.48;;;7.90;;
55270;SDS011;41132;47.162;9.470;2022-11-12T11:17:31;13.13;;;7.82;;
55270;SDS011;41132;47.162;9.470;2022-11-12T11:19:58;12.43;;;7.97;;
55270;SDS011;41132;47.162;9.470;2022-11-12T11:25:10;12.77;;;8.60;;
55270;SDS011;41132;47.162;9.470;2022-11-12T11:37:15;12.80;;;7.18;;
55270;SDS011;41132;47.162;9.470;2022-11-12T11:45:32;11.82;;;7.45;;
55270;SDS011;41132;47.162;9.470;2022-11-12T11:48:19;13.23;;;8.02;;
55270;SDS011;41132;47.162;9.470;2022-11-12T11:57:09;12.55;;;6.97;;
55270;SDS011;41132;47.162;9.470;2022-11-12T11:59:51;11.98;;;7.40;;
55270;SDS011;41132;47.162;9.470;2022-11-12T12:02:30;10.95;;;6.40;;
55270;SDS011;41132;47.162;9.470;2022-11-12T12:05:07;11.57;;;6.90;;
55270;SDS011;41132;47.162;9.470;2022-11-12T12:13:44;12.50;;;7.25;;
55270;SDS011;41132;47.162;9.470;2022-11-12T12:21:17;12.23;;;7.13;;
55270;SDS011;41132;47.162;9.470;2022-11-12T12:23:52;11.60;;;7.38;;
55270;SDS011;41132;47.162;9.470;2022-11-12T12:26:26;10.70;;;7.03;;
55270;SDS011;41132;47.162;9.470;2022-11-12T12:29:05;11.90;;;7.65;;
55270;SDS011;41132;47.162;9.470;2022-11-12T12:31:38;11.43;;;6.82;;
55270;SDS011;41132;47.162;9.470;2022-11-12T12:34:12;11.75;;;7.40;;
55270;SDS011;41132;47.162;9.470;2022-11-12T12:36:53;12.43;;;7.15;;
55270;SDS011;41132;47.162;9.470;2022-11-12T12:39:30;12.38;;;7.18;;
55270;SDS011;41132;47.162;9.470;2022-11-12T12:42:15;11.25;;;7.00;;
55270;SDS011;41132;47.162;9.470;2022-11-12T12:47:46;9.93;;;6.68;;
55270;SDS011;41132;47.162;9.470;2022-11-12T12:50:14;10.63;;;7.38;;
55270;SDS011;41132;47.162;9.470;2022-11-12T12:52:59;12.23;;;7.22;;
55270;SDS011;41132;47.162;9.470;2022-11-12T12:55:36;11.68;;;7.75;;
55270;SDS011;41132;47.162;9.470;2022-11-12T13:09:00;13.15;;;8.07;;
55270;SDS011;41132;47.162;9.470;2022-11-12T13:37:44;14.35;;;8.23;;
55270;SDS011;41132;47.162;9.470;2022-11-12T13:40:14;15.13;;;7.95;;
55270;SDS011;41132;47.162;9.470;2022-11-12T13:42:44;14.23;;;8.32;;
55270;SDS011;41132;47.162;9.470;2022-11-12T13:45:14;13.13;;;7.68;;
55270;SDS011;41132;47.162;9.470;2022-11-12T13:47:44;14.13;;;8.75;;
55270;SDS011;41132;47.162;9.470;2022-11-12T13:50:15;13.85;;;8.80;;
55270;SDS011;41132;47.162;9.470;2022-11-12T13:52:43;12.13;;;8.15;;
55270;SDS011;41132;47.162;9.470;2022-11-12T13:55:17;15.43;;;9.85;;
55270;SDS011;41132;47.162;9.470;2022-11-12T14:00:20;12.35;;;7.55;;
55270;SDS011;41132;47.162;9.470;2022-11-12T14:05:22;13.60;;;8.20;;
55270;SDS011;41132;47.162;9.470;2022-11-12T14:07:53;14.73;;;8.23;;
55270;SDS011;41132;47.162;9.470;2022-11-12T14:13:42;12.50;;;7.70;;
55270;SDS011;41132;47.162;9.470;2022-11-12T14:22:18;13.57;;;8.57;;
55270;SDS011;41132;47.162;9.470;2022-11-12T14:24:45;14.27;;;9.00;;
55270;SDS011;41132;47.162;9.470;2022-11-12T14:27:21;12.85;;;8.60;;
55270;SDS011;41132;47.162;9.470;2022-11-12T14:29:48;14.85;;;8.88;;
55270;SDS011;41132;47.162;9.470;2022-11-12T14:32:13;13.70;;;8.95;;
55270;SDS011;41132;47.162;9.470;2022-11-12T14:34:39;12.32;;;7.68;;
55270;SDS011;41132;47.162;9.470;2022-11-12T14:37:04;12.82;;;8.57;;
55270;SDS011;41132;47.162;9.470;2022-11-12T14:39:42;14.82;;;8.18;;
55270;SDS011;41132;47.162;9.470;2022-11-12T14:42:11;14.00;;;8.90;;
55270;SDS011;41132;47.162;9.470;2022-11-12T14:44:39;12.20;;;8.70;;
55270;SDS011;41132;47.162;9.470;2022-11-12T14:47:04;12.88;;;8.68;;
55270;SDS011;41132;47.162;9.470;2022-11-12T14:52:06;14.80;;;9.05;;
55270;SDS011;41132;47.162;9.470;2022-11-12T14:54:40;15.80;;;8.88;;
55270;SDS011;41132;47.162;9.470;2022-11-12T14:57:19;16.25;;;9.93;;
55270;SDS011;41132;47.162;9.470;2022-11-12T14:59:50;18.58;;;9.18;;
55270;SDS011;41132;47.162;9.470;2022-11-12T15:02:26;15.68;;;9.63;;
55270;SDS011;41132;47.162;9.470;2022-11-12T15:05:10;13.80;;;8.73;;
55270;SDS011;41132;47.162;9.470;2022-11-12T15:07:50;13.10;;;8.88;;
55270;SDS011;41132;47.162;9.470;2022-11-12T15:15:31;13.00;;;7.75;;
55270;SDS011;41132;47.162;9.470;2022-11-12T15:18:01;12.27;;;8.00;;
55270;SDS011;41132;47.162;9.470;2022-11-12T15:20:29;14.25;;;8.68;;
55270;SDS011;41132;47.162;9.470;2022-11-12T15:22:55;13.70;;;8.27;;
55270;SDS011;41132;47.162;9.470;2022-11-12T15:25:22;13.20;;;8.70;;
55270;SDS011;41132;47.162;9.470;2022-11-12T15:27:48;12.75;;;8.32;;
55270;SDS011;41132;47.162;9.470;2022-11-12T15:33:07;12.75;;;7.57;;
55270;SDS011;41132;47.162;9.470;2022-11-12T15:35:33;17.88;;;10.48;;
55270;SDS011;41132;47.162;9.470;2022-11-12T15:38:02;17.48;;;10.90;;
55270;SDS011;41132;47.162;9.470;2022-11-12T15:40:31;16.85;;;9.48;;
55270;SDS011;41132;47.162;9.470;2022-11-12T15:43:20;16.23;;;8.88;;
55270;SDS011;41132;47.162;9.470;2022-11-12T15:45:48;14.10;;;8.27;;
55270;SDS011;41132;47.162;9.470;2022-11-12T15:48:15;12.73;;;8.15;;
55270;SDS011;41132;47.162;9.470;2022-11-12T15:50:41;14.63;;;8.60;;
55270;SDS011;41132;47.162;9.470;2022-11-12T15:53:06;12.98;;;7.57;;
55270;SDS011;41132;47.162;9.470;2022-11-12T15:55:32;13.55;;;8.27;;
55270;SDS011;41132;47.162;9.470;2022-11-12T15:57:59;14.02;;;8.65;;
55270;SDS011;41132;47.162;9.470;2022-11-12T16:00:34;14.85;;;9.25;;
55270;SDS011;41132;47.162;9.470;2022-11-12T16:03:20;16.92;;;10.93;;
55270;SDS011;41132;47.162;9.470;2022-11-12T16:05:46;17.30;;;10.52;;
55270;SDS011;41132;47.162;9.470;2022-11-12T16:08:12;19.90;;;10.75;;
55270;SDS011;41132;47.162;9.470;2022-11-12T16:10:38;18.83;;;11.23;;
55270;SDS011;41132;47.162;9.470;2022-11-12T16:13:06;15.43;;;9.80;;
55270;SDS011;41132;47.162;9.470;2022-11-12T16:15:35;15.25;;;10.60;;
55270;SDS011;41132;47.162;9.470;2022-11-12T16:18:01;14.63;;;8.68;;
55270;SDS011;41132;47.162;9.470;2022-11-12T16:20:28;16.48;;;10.32;;
55270;SDS011;41132;47.162;9.470;2022-11-12T16:22:55;15.57;;;8.27;;
55270;SDS011;41132;47.162;9.470;2022-11-12T16:25:21;12.80;;;8.38;;
55270;SDS011;41132;47.162;9.470;2022-11-12T16:27:47;15.80;;;9.65;;
55270;SDS011;41132;47.162;9.470;2022-11-12T16:30:14;12.65;;;8.73;;
55270;SDS011;41132;47.162;9.470;2022-11-12T16:32:41;14.20;;;8.05;;
55270;SDS011;41132;47.162;9.470;2022-11-12T16:35:07;12.30;;;7.68;;
55270;SDS011;41132;47.162;9.470;2022-11-12T16:37:33;12.68;;;7.60;;
55270;SDS011;41132;47.162;9.470;2022-11-12T16:39:58;16.42;;;8.10;;
55270;SDS011;41132;47.162;9.470;2022-11-12T16:42:24;11.88;;;8.25;;
55270;SDS011;41132;47.162;9.470;2022-11-12T16:44:51;13.18;;;8.05;;
55270;SDS011;41132;47.162;9.470;2022-11-12T16:47:17;13.18;;;8.45;;
55270;SDS011;41132;47.162;9.470;2022-11-12T16:49:42;13.30;;;8.68;;
55270;SDS011;41132;47.162;9.470;2022-11-12T16:52:08;19.13;;;13.68;;
55270;SDS011;41132;47.162;9.470;2022-11-12T16:54:33;15.50;;;11.73;;
55270;SDS011;41132;47.162;9.470;2022-11-12T16:56:59;13.80;;;8.10;;
55270;SDS011;41132;47.162;9.470;2022-11-12T16:59:24;12.93;;;8.73;;
55270;SDS011;41132;47.162;9.470;2022-11-12T17:01:50;14.15;;;8.57;;
55270;SDS011;41132;47.162;9.470;2022-11-12T17:04:15;14.05;;;9.45;;
55270;SDS011;41132;47.162;9.470;2022-11-12T17:06:40;15.38;;;10.15;;
55270;SDS011;41132;47.162;9.470;2022-11-12T17:09:06;16.92;;;10.13;;
55270;SDS011;41132;47.162;9.470;2022-11-12T17:11:34;15.75;;;9.95;;
55270;SDS011;41132;47.162;9.470;2022-11-12T17:14:00;14.95;;;10.70;;
55270;SDS011;41132;47.162;9.470;2022-11-12T17:16:27;14.18;;;9.40;;
55270;SDS011;41132;47.162;9.470;2022-11-12T17:18:54;11.77;;;8.80;;
55270;SDS011;41132;47.162;9.470;2022-11-12T17:21:20;16.02;;;10.05;;
55270;SDS011;41132;47.162;9.470;2022-11-12T17:23:45;14.15;;;9.75;;
55270;SDS011;41132;47.162;9.470;2022-11-12T17:26:12;16.90;;;10.25;;
55270;SDS011;41132;47.162;9.470;2022-11-12T17:28:40;15.63;;;11.30;;
55270;SDS011;41132;47.162;9.470;2022-11-12T17:31:10;15.95;;;10.25;;
55270;SDS011;41132;47.162;9.470;2022-11-12T17:33:46;15.45;;;10.13;;